OMAD

Al Bateen Executive Airport

Airport
ICAO code
OMAD
IATA Code
AZI
Summary
ICAO Region
MID
ICAO Territory
Location

Abu Dhabi,

Serving
Abu Dhabi
Coordinates
24° 25' 42" N , 54° 27' 29" E
KCC
Metar
Observation
OMAD 251900Z 06002KT CAVOK 32/28 Q1003 NOSIG
Station
Abu Dhabi Bateen Airport
Date/Time
2022-09-25 19:00:00
Wind direction
60°
Wind speed
02 kts
Lowest cloud amount
clouds and visibility OK
Temperature
32°C
Dew point
28°C
Humidity
79%
QNH
1003 hPa
Weather condition
n/a

Description

Al Bateen Executive Airport is a dedicated business jet airport located 6.5 nm south east Abu Dhabi, United Arab Emirates.

Climatology

Hot Desert Climate (Köppen climate classification BWh) - Hot desert climates are typically found in the subtropics where there is unbroken sunshine for the whole year due to the stable descending air and high pressure, little or no precipitation. Maximum temperatures of 40°C to 45°C are not uncommon, particularly during the warmer months of the year. During colder periods of the year, night-time temperatures can drop to freezing or below due to the exceptional radiation loss under the clear skies. However, very rarely do temperatures drop far below freezing.

Runways

Designator Length Width Surface Rops
13/31 3200 46 ASP Yes/Yes

Airport map

Aerial View

SKYbrary Partners:

Safety knowledge contributed by: